Terminal Aerodrome Forecast
Issued by NWS

Home | Current Version | Previous Version | Text Only | Print | Product List | Glossary On
Versions: 1 2 3 4 5 6 7 8 9 10 11 12 13 14
000
FTUS46 KSTO 301700
TAFSAC
TAF
KSAC 301737Z 3018/3118 20008KT P6SM SCT250
     FM310600 17005KT P6SM SCT250
      TEMPO 3112/3116 5SM BR SCT010=

USA.gov is the U.S. government's official web portal to all federal, state and local government web resources and services.